Time;durP1;ratioP1;P1;durP2;ratioP2;P2;SDS_P1;SDS_P2;PMS_P1;PMS_P2;Temp;Humidity;BMP_temperature;BMP_pressure;BME280_temperature;BME280_humidity;BME280_pressure;Samples;Min_cycle;Max_cycle;Signal;HPM_P1;HPM_P2
2023/03/25 00:01:01;;;;;;;1.27;0.10;;;10.50;79.50;;;;;;4974546;28;87543;-68
2023/03/25 00:03:36;;;;;;;3.70;0.25;;;10.60;78.30;;;;;;4978215;28;88118;-70
2023/03/25 00:06:05;;;;;;;1.67;0.13;;;10.70;78.40;;;;;;4979225;28;87334;-69
2023/03/25 00:08:31;;;;;;;1.35;0.10;;;10.80;77.40;;;;;;4972020;28;87557;-67
2023/03/25 00:10:59;;;;;;;6.93;0.10;;;10.90;77.60;;;;;;4975728;28;87254;-69
2023/03/25 00:13:25;;;;;;;1.92;0.10;;;11.00;78.30;;;;;;4980502;28;88470;-66
2023/03/25 00:15:56;;;;;;;2.45;0.00;;;10.90;78.60;;;;;;4988805;28;88706;-67
2023/03/25 00:18:23;;;;;;;2.60;0.10;;;10.90;77.90;;;;;;4975318;28;88733;-68
2023/03/25 00:20:49;;;;;;;1.65;0.10;;;10.90;78.20;;;;;;4979299;28;87268;-70
2023/03/25 00:23:16;;;;;;;1.38;0.03;;;10.90;77.20;;;;;;4973539;28;88363;-67
2023/03/25 00:25:43;;;;;;;2.45;0.10;;;10.90;77.90;;;;;;4969921;28;87340;-70
2023/03/25 00:28:10;;;;;;;1.73;0.10;;;10.90;77.80;;;;;;4973129;28;87477;-67
2023/03/25 00:30:38;;;;;;;1.05;0.05;;;10.90;77.80;;;;;;4978711;28;87025;-68
2023/03/25 00:33:03;;;;;;;2.58;0.10;;;10.90;78.10;;;;;;4972779;28;87041;-68
2023/03/25 00:35:29;;;;;;;1.55;0.00;;;10.90;78.40;;;;;;4986157;28;87816;-67
2023/03/25 00:37:59;;;;;;;1.85;0.20;;;10.90;78.70;;;;;;4979479;28;90000;-67
2023/03/25 00:40:39;;;;;;;0.80;0.10;;;10.90;79.30;;;;;;4979371;28;87083;-68
2023/03/25 00:43:05;;;;;;;1.00;0.10;;;10.90;79.60;;;;;;4981113;28;88750;-67
2023/03/25 00:45:31;;;;;;;1.20;0.10;;;10.80;79.90;;;;;;4977087;28;87970;-67
2023/03/25 00:47:57;;;;;;;1.40;0.10;;;10.80;80.40;;;;;;4972933;28;88442;-68
2023/03/25 00:50:23;;;;;;;4.05;0.13;;;10.70;82.10;;;;;;4967258;28;87514;-68
2023/03/25 00:52:50;;;;;;;4.13;0.10;;;10.70;82.30;;;;;;4976275;28;88062;-68
2023/03/25 00:55:16;;;;;;;1.13;0.10;;;10.70;82.40;;;;;;4980106;28;87320;-70
2023/03/25 00:57:42;;;;;;;0.70;0.10;;;10.70;83.00;;;;;;4978548;28;87428;-69
2023/03/25 01:00:11;;;;;;;1.02;0.05;;;10.80;82.30;;;;;;4982578;28;88573;-68
2023/03/25 01:02:39;;;;;;;2.30;0.10;;;10.70;82.20;;;;;;4989970;28;89647;-68
2023/03/25 01:05:06;;;;;;;3.42;0.10;;;10.70;82.20;;;;;;4966798;28;88744;-69
2023/03/25 01:07:32;;;;;;;1.67;0.10;;;10.70;82.40;;;;;;4982941;28;87323;-66
2023/03/25 01:09:58;;;;;;;1.35;0.15;;;10.70;82.80;;;;;;4977786;28;87577;-67
2023/03/25 01:12:25;;;;;;;1.83;0.20;;;10.60;83.10;;;;;;4982240;28;88257;-67
2023/03/25 01:14:52;;;;;;;1.25;0.15;;;10.60;84.30;;;;;;4977777;28;87546;-67
2023/03/25 01:17:18;;;;;;;1.58;0.13;;;10.50;84.50;;;;;;4979627;28;87454;-68
2023/03/25 01:19:44;;;;;;;1.85;0.10;;;10.50;84.70;;;;;;4970334;28;86826;-68
2023/03/25 01:22:10;;;;;;;1.45;0.10;;;10.50;85.20;;;;;;4982459;28;88436;-64
2023/03/25 01:24:36;;;;;;;1.77;0.20;;;10.60;85.20;;;;;;4976089;28;88154;-65
2023/03/25 01:27:02;;;;;;;3.33;0.10;;;10.50;86.10;;;;;;4973715;28;88560;-66
2023/03/25 01:29:29;;;;;;;0.93;0.10;;;10.50;86.00;;;;;;4982107;28;87434;-69
2023/03/25 01:31:55;;;;;;;0.70;0.00;;;10.30;84.90;;;;;;4984588;28;88870;-66
2023/03/25 01:34:21;;;;;;;2.30;0.03;;;10.10;85.40;;;;;;4998494;28;87937;-67
2023/03/25 01:36:47;;;;;;;1.27;0.00;;;9.90;87.40;;;;;;4984616;28;87029;-68
2023/03/25 01:39:17;;;;;;;0.77;0.03;;;9.80;87.20;;;;;;4979925;28;88435;-69
2023/03/25 01:41:45;;;;;;;0.60;0.00;;;9.70;87.70;;;;;;4983295;28;88339;-69
2023/03/25 01:44:23;;;;;;;0.60;0.00;;;9.70;88.10;;;;;;4978939;28;87332;-66
2023/03/25 01:46:51;;;;;;;0.77;0.00;;;9.80;88.00;;;;;;4979488;28;87092;-70
2023/03/25 01:49:43;;;;;;;0.90;0.00;;;9.70;88.10;;;;;;4978640;28;87595;-68
2023/03/25 01:52:20;;;;;;;0.82;0.00;;;9.70;86.90;;;;;;4962753;28;90215;-67
2023/03/25 01:54:49;;;;;;;0.65;0.00;;;9.70;86.60;;;;;;4979060;28;88975;-68
2023/03/25 01:57:18;;;;;;;0.35;0.00;;;9.70;86.00;;;;;;4978813;28;87456;-65
2023/03/25 01:59:44;;;;;;;0.28;0.00;;;9.70;84.20;;;;;;4974673;28;87716;-69
2023/03/25 02:02:14;;;;;;;1.52;0.00;;;9.60;83.60;;;;;;4995275;28;88154;-70
2023/03/25 02:05:09;;;;;;;0.98;0.10;;;9.70;84.00;;;;;;4970507;28;87445;-71
2023/03/25 02:07:41;;;;;;;1.17;0.00;;;9.70;85.40;;;;;;4976596;28;87215;-68
2023/03/25 02:10:10;;;;;;;1.02;0.00;;;9.60;85.40;;;;;;4986364;28;86661;-67
2023/03/25 02:12:35;;;;;;;0.30;0.00;;;9.70;84.60;;;;;;4991849;28;87736;-68
2023/03/25 02:15:05;;;;;;;0.70;0.00;;;9.60;83.90;;;;;;4975878;28;87900;-66
2023/03/25 02:17:36;;;;;;;0.90;0.00;;;9.60;84.20;;;;;;4967963;28;88586;-65
2023/03/25 02:20:14;;;;;;;1.15;0.00;;;9.60;83.00;;;;;;4967374;28;87505;-66
2023/03/25 02:22:58;;;;;;;0.95;0.10;;;9.70;81.00;;;;;;4972478;28;88728;-68
2023/03/25 02:25:50;;;;;;;0.52;0.10;;;9.60;78.50;;;;;;4972844;28;87841;-69
2023/03/25 02:28:35;;;;;;;0.30;0.00;;;9.70;79.10;;;;;;4981422;28;87473;-68
2023/03/25 02:31:21;;;;;;;4.15;0.00;;;9.70;78.00;;;;;;4973470;28;87080;-67
2023/03/25 02:33:59;;;;;;;0.70;0.00;;;9.70;77.20;;;;;;4975081;28;87636;-70
2023/03/25 02:36:57;;;;;;;1.40;0.10;;;9.90;76.60;;;;;;4970526;28;88152;-68
2023/03/25 02:39:52;;;;;;;2.58;0.20;;;9.90;77.10;;;;;;4973016;28;87430;-68
2023/03/25 02:42:38;;;;;;;0.65;0.00;;;9.90;76.00;;;;;;4981769;28;87511;-69
2023/03/25 02:45:16;;;;;;;3.55;0.10;;;10.00;77.70;;;;;;4974233;28;88506;-67
2023/03/25 02:47:46;;;;;;;0.60;0.00;;;10.00;78.70;;;;;;4977066;28;88237;-65
2023/03/25 02:50:33;;;;;;;0.88;0.03;;;10.00;75.90;;;;;;4967817;28;87449;-67
2023/03/25 02:53:03;;;;;;;1.52;0.00;;;10.00;76.50;;;;;;4974862;28;87662;-65
2023/03/25 02:55:30;;;;;;;2.20;0.00;;;10.00;76.20;;;;;;4970784;28;88865;-69
2023/03/25 02:57:58;;;;;;;0.85;0.00;;;10.00;75.70;;;;;;4976414;28;87886;-67
2023/03/25 03:00:27;;;;;;;1.65;0.00;;;10.00;76.50;;;;;;4976032;28;87437;-68
2023/03/25 03:02:59;;;;;;;0.47;0.00;;;10.10;77.00;;;;;;4973034;28;86650;-68
2023/03/25 03:05:30;;;;;;;1.13;0.00;;;10.10;75.80;;;;;;4968040;28;88724;-67
2023/03/25 03:08:26;;;;;;;1.30;0.00;;;10.10;77.00;;;;;;4975857;28;87938;-67
2023/03/25 03:11:20;;;;;;;0.45;0.00;;;9.90;79.80;;;;;;4973571;28;88033;-70
2023/03/25 03:14:23;;;;;;;0.90;0.00;;;9.60;81.00;;;;;;4971830;28;87929;-67
2023/03/25 03:17:07;;;;;;;0.80;0.15;;;9.40;81.80;;;;;;4980026;28;88046;-66
2023/03/25 03:19:49;;;;;;;0.50;0.00;;;9.30;82.40;;;;;;4973586;28;87800;-67
2023/03/25 03:22:28;;;;;;;1.40;0.00;;;9.20;82.60;;;;;;4989219;28;87936;-68
2023/03/25 03:25:02;;;;;;;1.65;0.08;;;9.20;83.80;;;;;;4973710;28;87557;-66
2023/03/25 03:27:55;;;;;;;0.22;0.00;;;9.10;83.80;;;;;;4975476;28;87211;-67
2023/03/25 03:30:41;;;;;;;0.63;0.00;;;9.10;83.30;;;;;;4972826;28;87489;-70
2023/03/25 03:33:16;;;;;;;0.45;0.00;;;9.00;83.00;;;;;;4983831;28;87080;-69
2023/03/25 03:35:49;;;;;;;0.73;0.00;;;9.00;82.50;;;;;;4997818;28;87241;-69
2023/03/25 03:38:18;;;;;;;0.50;0.03;;;9.00;82.10;;;;;;4990276;28;88514;-66
2023/03/25 03:40:51;;;;;;;0.00;0.00;;;9.00;83.00;;;;;;4960762;28;88862;-69
2023/03/25 03:43:27;;;;;;;1.38;0.00;;;9.00;82.20;;;;;;4973482;28;87538;-69
2023/03/25 03:46:02;;;;;;;0.20;0.00;;;9.00;81.00;;;;;;4975450;28;87084;-65
2023/03/25 03:48:56;;;;;;;1.90;0.00;;;9.10;81.00;;;;;;4986725;28;87213;-68
2023/03/25 03:51:32;;;;;;;0.22;0.00;;;9.20;79.60;;;;;;4995060;28;88504;-68
2023/03/25 03:54:12;;;;;;;0.47;0.00;;;9.30;80.10;;;;;;4997882;28;87738;-66
2023/03/25 03:56:45;;;;;;;0.20;0.00;;;9.30;79.80;;;;;;4993610;28;86740;-69
2023/03/25 03:59:22;;;;;;;0.68;0.00;;;9.30;80.10;;;;;;4980990;28;88725;-67
2023/03/25 04:01:54;;;;;;;1.88;0.00;;;9.40;80.80;;;;;;4964842;28;87761;-67
2023/03/25 04:04:27;;;;;;;1.00;0.00;;;9.50;81.10;;;;;;4977738;28;88358;-68
2023/03/25 04:07:18;;;;;;;0.73;0.00;;;9.50;80.00;;;;;;4977653;28;87074;-68
2023/03/25 04:10:07;;;;;;;1.90;0.00;;;9.60;80.40;;;;;;4976532;28;87849;-66
2023/03/25 04:12:37;;;;;;;1.98;0.00;;;9.50;83.10;;;;;;4984767;28;88563;-67
2023/03/25 04:15:04;;;;;;;0.35;0.00;;;9.00;85.00;;;;;;4969546;28;87755;-69
2023/03/25 04:17:31;;;;;;;1.25;0.00;;;8.40;87.40;;;;;;4981184;28;87450;-69
2023/03/25 04:19:58;;;;;;;0.60;0.00;;;8.20;88.00;;;;;;4976448;28;88259;-67
2023/03/25 04:22:24;;;;;;;0.68;0.00;;;8.20;87.30;;;;;;4981449;28;87261;-67
2023/03/25 04:24:50;;;;;;;0.30;0.00;;;8.10;88.80;;;;;;4981270;28;87620;-67
2023/03/25 04:27:18;;;;;;;0.08;0.03;;;8.10;88.70;;;;;;4991235;28;87633;-68
2023/03/25 04:29:46;;;;;;;1.17;0.00;;;8.10;88.70;;;;;;4968558;28;89934;-69
2023/03/25 04:32:12;;;;;;;0.30;0.00;;;8.10;88.90;;;;;;4976053;28;89151;-70
2023/03/25 04:34:39;;;;;;;0.45;0.00;;;8.10;90.00;;;;;;4983774;28;87296;-66
2023/03/25 04:37:05;;;;;;;1.00;0.00;;;8.10;87.50;;;;;;4976737;28;88138;-68
2023/03/25 04:39:31;;;;;;;0.20;0.00;;;8.10;88.30;;;;;;4978690;28;88196;-69
2023/03/25 04:42:02;;;;;;;0.00;0.00;;;8.10;88.40;;;;;;4990656;28;88701;-68
2023/03/25 04:44:32;;;;;;;0.65;0.00;;;8.10;88.00;;;;;;4997689;28;87602;-69
2023/03/25 04:46:59;;;;;;;0.30;0.00;;;8.20;87.60;;;;;;4978864;28;86728;-67
2023/03/25 04:49:25;;;;;;;0.10;0.00;;;8.20;87.20;;;;;;4972033;28;87560;-66
2023/03/25 04:51:53;;;;;;;1.55;0.00;;;8.20;87.00;;;;;;4989747;28;88896;-66
2023/03/25 04:54:19;;;;;;;0.03;0.00;;;8.10;87.10;;;;;;4979388;28;88643;-68
2023/03/25 04:56:46;;;;;;;0.10;0.00;;;8.10;87.20;;;;;;4971456;28;87453;-66
2023/03/25 04:59:12;;;;;;;0.00;0.00;;;8.10;87.80;;;;;;4978171;28;88128;-68
2023/03/25 05:01:41;;;;;;;0.25;0.00;;;8.10;87.50;;;;;;4978528;28;87657;-70
2023/03/25 05:04:11;;;;;;;0.20;0.00;;;8.10;86.90;;;;;;4977600;28;87307;-67
2023/03/25 05:06:42;;;;;;;0.30;0.00;;;8.10;87.50;;;;;;4974773;28;87315;-68
2023/03/25 05:09:14;;;;;;;0.30;0.00;;;8.10;87.20;;;;;;4976528;28;87559;-68
2023/03/25 05:11:41;;;;;;;0.00;0.00;;;8.20;87.70;;;;;;4978429;28;87797;-67
2023/03/25 05:14:12;;;;;;;0.00;0.00;;;8.00;86.90;;;;;;4977104;28;87096;-70
2023/03/25 05:16:38;;;;;;;0.82;0.00;;;7.90;88.10;;;;;;4979112;28;87359;-68
2023/03/25 05:19:05;;;;;;;0.00;0.00;;;7.90;89.20;;;;;;4967852;28;89520;-68
2023/03/25 05:21:36;;;;;;;0.13;0.00;;;7.90;89.20;;;;;;4978238;28;88759;-70
2023/03/25 05:24:03;;;;;;;0.13;0.00;;;7.80;90.10;;;;;;4974309;28;87378;-66
2023/03/25 05:26:33;;;;;;;0.00;0.00;;;7.70;90.90;;;;;;4971847;28;88778;-69
2023/03/25 05:29:19;;;;;;;0.40;0.00;;;7.60;90.60;;;;;;4975756;28;89203;-67
2023/03/25 05:31:45;;;;;;;0.10;0.00;;;7.50;90.70;;;;;;4973167;28;87954;-68
2023/03/25 05:34:13;;;;;;;0.30;0.00;;;7.40;90.70;;;;;;4983278;28;87771;-67
2023/03/25 05:36:39;;;;;;;0.05;0.00;;;7.30;90.50;;;;;;4994117;28;86736;-65
2023/03/25 05:39:04;;;;;;;0.00;0.00;;;7.30;90.80;;;;;;4986346;28;87961;-68
2023/03/25 05:41:37;;;;;;;0.45;0.00;;;7.30;90.60;;;;;;4978284;28;88123;-69
2023/03/25 05:44:04;;;;;;;0.30;0.00;;;7.30;90.90;;;;;;4981129;28;88416;-66
2023/03/25 05:46:29;;;;;;;0.20;0.00;;;7.20;90.90;;;;;;4979535;28;87498;-65
2023/03/25 05:48:59;;;;;;;0.10;0.00;;;7.20;91.10;;;;;;4996438;28;87480;-67
2023/03/25 05:51:26;;;;;;;1.48;0.00;;;7.10;91.10;;;;;;4977687;28;88374;-69
2023/03/25 05:53:52;;;;;;;0.00;0.00;;;7.10;91.30;;;;;;4979240;28;87475;-69
2023/03/25 05:56:20;;;;;;;0.00;0.00;;;7.00;91.40;;;;;;4976203;28;88733;-68
2023/03/25 05:58:47;;;;;;;0.30;0.00;;;7.00;91.40;;;;;;4978069;28;88068;-67
2023/03/25 06:01:14;;;;;;;0.00;0.00;;;7.00;91.30;;;;;;4980414;28;88455;-68
2023/03/25 06:03:44;;;;;;;0.10;0.00;;;7.10;91.50;;;;;;4978333;28;87351;-67
2023/03/25 06:06:17;;;;;;;0.38;0.00;;;7.10;91.40;;;;;;4979720;28;87374;-70
2023/03/25 06:08:51;;;;;;;0.00;0.00;;;7.20;91.00;;;;;;4981672;28;89233;-67
2023/03/25 06:11:18;;;;;;;0.03;0.00;;;7.20;91.00;;;;;;4973288;28;88257;-69
2023/03/25 06:13:48;;;;;;;0.00;0.00;;;7.30;91.00;;;;;;4974872;28;87499;-67
2023/03/25 06:16:17;;;;;;;0.10;0.00;;;7.40;90.10;;;;;;4979989;28;87395;-68
2023/03/25 06:18:43;;;;;;;0.20;0.00;;;7.40;90.40;;;;;;4985721;28;89316;-66
2023/03/25 06:21:10;;;;;;;0.10;0.00;;;7.40;90.20;;;;;;4984278;28;87452;-69
2023/03/25 06:23:38;;;;;;;0.52;0.00;;;7.40;91.10;;;;;;4977870;28;87023;-68
2023/03/25 06:26:04;;;;;;;0.43;0.00;;;7.30;90.80;;;;;;4966242;28;87965;-67
2023/03/25 06:28:32;;;;;;;0.22;0.00;;;7.30;90.70;;;;;;4981153;28;87398;-67
2023/03/25 06:30:58;;;;;;;0.85;0.00;;;7.30;90.30;;;;;;4973717;28;89556;-69
2023/03/25 06:33:24;;;;;;;0.30;0.00;;;7.50;90.90;;;;;;4978245;28;88327;-65
2023/03/25 06:35:53;;;;;;;2.00;0.25;;;7.60;90.70;;;;;;4970091;28;87463;-68
2023/03/25 06:38:23;;;;;;;1.20;0.10;;;7.60;90.00;;;;;;4971872;28;88021;-67
2023/03/25 06:40:49;;;;;;;3.70;1.00;;;7.70;90.60;;;;;;4972084;28;87924;-68
2023/03/25 06:43:15;;;;;;;1.23;0.10;;;7.70;90.70;;;;;;4975279;28;87348;-68
2023/03/25 06:45:41;;;;;;;2.72;0.22;;;7.80;90.80;;;;;;4973886;28;87447;-69
2023/03/25 06:48:07;;;;;;;0.57;0.03;;;7.90;90.40;;;;;;4965960;28;89303;-67
2023/03/25 06:50:33;;;;;;;0.60;0.10;;;7.90;90.60;;;;;;4978075;28;87791;-66
2023/03/25 06:52:59;;;;;;;0.40;0.00;;;8.00;90.80;;;;;;4975386;28;87537;-68
2023/03/25 06:55:24;;;;;;;0.30;0.00;;;8.10;90.30;;;;;;4967818;28;87826;-72
2023/03/25 06:57:54;;;;;;;1.48;0.30;;;8.10;90.30;;;;;;4970565;28;89477;-67
2023/03/25 07:00:22;;;;;;;3.63;0.68;;;8.00;91.00;;;;;;4966238;28;88697;-70
2023/03/25 07:02:48;;;;;;;5.10;2.05;;;8.10;90.50;;;;;;4972437;28;87427;-65
2023/03/25 07:05:14;;;;;;;1.10;0.20;;;8.10;90.70;;;;;;4965699;28;87568;-65
2023/03/25 07:07:40;;;;;;;3.97;1.98;;;8.10;90.30;;;;;;4964215;28;89203;-66
2023/03/25 07:10:07;;;;;;;3.38;1.60;;;8.30;90.30;;;;;;4978444;28;89038;-66
2023/03/25 07:12:34;;;;;;;1.13;0.10;;;8.30;90.20;;;;;;4975425;28;89106;-67
2023/03/25 07:14:59;;;;;;;0.40;0.10;;;8.40;89.90;;;;;;4968769;28;86692;-70
2023/03/25 07:17:25;;;;;;;0.80;0.03;;;8.30;90.60;;;;;;4972742;28;87836;-66
2023/03/25 07:19:51;;;;;;;2.97;0.95;;;8.40;89.90;;;;;;4986423;28;87429;-66
2023/03/25 07:22:17;;;;;;;1.70;0.38;;;8.50;90.50;;;;;;4982043;28;88501;-64
2023/03/25 07:24:43;;;;;;;2.05;0.68;;;8.50;90.30;;;;;;4978096;28;87638;-71
2023/03/25 07:27:13;;;;;;;2.10;0.40;;;8.50;90.00;;;;;;4973567;28;87996;-70
2023/03/25 07:29:39;;;;;;;1.38;0.22;;;8.50;90.50;;;;;;4967234;28;87510;-72
2023/03/25 07:32:05;;;;;;;1.58;0.03;;;8.50;90.40;;;;;;4978956;28;88135;-67
2023/03/25 07:34:31;;;;;;;2.15;0.22;;;8.50;90.40;;;;;;4968402;28;88052;-67
2023/03/25 07:36:57;;;;;;;1.23;0.10;;;8.50;90.30;;;;;;4977672;28;88157;-67
2023/03/25 07:39:24;;;;;;;1.85;0.20;;;8.40;89.90;;;;;;4961671;28;87454;-67
2023/03/25 07:41:50;;;;;;;1.02;0.20;;;8.30;90.00;;;;;;4964775;28;87658;-67
2023/03/25 07:44:19;;;;;;;2.95;0.68;;;8.30;90.20;;;;;;4966415;28;87537;-68
2023/03/25 07:46:45;;;;;;;10.80;5.45;;;8.40;90.00;;;;;;4977583;28;88554;-70
2023/03/25 07:49:11;;;;;;;1.08;0.28;;;8.50;90.00;;;;;;4978937;28;92136;-73
2023/03/25 07:51:37;;;;;;;2.33;0.52;;;8.70;90.30;;;;;;4983563;28;87476;-71
2023/03/25 07:54:03;;;;;;;3.92;0.20;;;8.80;89.20;;;;;;4972270;28;87572;-70
2023/03/25 07:56:28;;;;;;;1.55;0.30;;;8.80;89.50;;;;;;4976214;28;87699;-70
2023/03/25 07:58:54;;;;;;;1.60;0.30;;;8.80;88.90;;;;;;4975532;28;87631;-68
2023/03/25 08:01:20;;;;;;;0.90;0.10;;;8.80;87.80;;;;;;4963752;28;87436;-69
2023/03/25 08:03:45;;;;;;;2.42;0.70;;;8.90;88.20;;;;;;4969762;28;88144;-69
2023/03/25 08:06:11;;;;;;;3.03;0.50;;;9.00;87.30;;;;;;4966031;28;90229;-67
2023/03/25 08:08:37;;;;;;;0.50;0.10;;;9.10;86.60;;;;;;4968973;28;87662;-71
2023/03/25 08:11:02;;;;;;;1.80;0.13;;;9.30;85.30;;;;;;4965343;28;89661;-67
2023/03/25 08:13:29;;;;;;;1.40;0.10;;;9.50;84.40;;;;;;4967138;28;87397;-70
2023/03/25 08:15:54;;;;;;;1.85;0.03;;;9.60;83.90;;;;;;4964453;28;87708;-70
2023/03/25 08:18:20;;;;;;;0.65;0.00;;;9.70;84.00;;;;;;4968035;28;87823;-68
2023/03/25 08:20:49;;;;;;;0.70;0.13;;;9.80;85.40;;;;;;4976292;28;87575;-67
2023/03/25 08:23:18;;;;;;;0.63;0.10;;;9.90;84.70;;;;;;4969056;28;89055;-68
2023/03/25 08:25:47;;;;;;;0.60;0.10;;;10.10;85.50;;;;;;4976956;28;88717;-73
2023/03/25 08:28:16;;;;;;;1.50;0.40;;;10.20;85.30;;;;;;4964329;28;87974;-68
2023/03/25 08:30:43;;;;;;;1.73;0.77;;;10.20;84.30;;;;;;4961311;28;87559;-68
2023/03/25 08:33:09;;;;;;;1.67;0.63;;;10.20;84.00;;;;;;4973042;28;87576;-70
2023/03/25 08:35:36;;;;;;;1.30;0.20;;;10.30;83.80;;;;;;4985708;28;89742;-67
2023/03/25 08:38:05;;;;;;;2.47;0.50;;;10.40;83.50;;;;;;4962790;28;92453;-67
2023/03/25 08:40:35;;;;;;;0.68;0.10;;;10.50;83.20;;;;;;4970129;28;89649;-66
2023/03/25 08:43:03;;;;;;;0.95;0.20;;;10.60;82.80;;;;;;4965587;28;88274;-69
2023/03/25 08:45:31;;;;;;;0.40;0.10;;;10.70;80.80;;;;;;4973024;28;87397;-69
2023/03/25 08:47:57;;;;;;;0.20;0.00;;;11.00;81.90;;;;;;4967934;28;88357;-68
2023/03/25 08:50:23;;;;;;;0.50;0.10;;;11.30;79.00;;;;;;4969678;28;87559;-68
2023/03/25 08:52:52;;;;;;;1.45;0.00;;;11.70;77.80;;;;;;4978165;28;86324;-69
2023/03/25 08:55:18;;;;;;;1.77;0.10;;;12.00;77.90;;;;;;4977108;28;87650;-69
2023/03/25 08:57:44;;;;;;;0.63;0.00;;;12.10;75.60;;;;;;4985248;28;87906;-69
2023/03/25 09:00:13;;;;;;;0.30;0.00;;;12.30;72.90;;;;;;4989159;28;88292;-68
2023/03/25 09:02:40;;;;;;;0.25;0.00;;;12.30;72.70;;;;;;4971778;28;87557;-67
2023/03/25 09:05:08;;;;;;;3.75;0.00;;;12.00;73.30;;;;;;4973794;28;88191;-69
2023/03/25 09:07:34;;;;;;;0.30;0.00;;;11.70;72.80;;;;;;4974957;28;88374;-71
2023/03/25 09:10:00;;;;;;;1.23;0.00;;;11.60;73.50;;;;;;4966701;28;87407;-70
2023/03/25 09:12:26;;;;;;;2.40;0.10;;;11.40;75.00;;;;;;4960625;28;89795;-69
2023/03/25 09:14:52;;;;;;;0.93;0.00;;;11.30;79.10;;;;;;4979491;28;88625;-69
2023/03/25 09:17:17;;;;;;;2.03;0.03;;;11.30;76.70;;;;;;4979140;28;87336;-71
2023/03/25 09:19:43;;;;;;;0.38;0.00;;;11.30;75.80;;;;;;4965263;28;87500;-72
2023/03/25 09:22:09;;;;;;;3.67;0.30;;;11.20;77.20;;;;;;4966409;28;87407;-72
2023/03/25 09:24:34;;;;;;;0.95;0.03;;;11.20;75.70;;;;;;4969799;28;88976;-71
2023/03/25 09:27:01;;;;;;;0.38;0.03;;;11.20;75.80;;;;;;4962500;28;88220;-71
2023/03/25 09:29:27;;;;;;;0.40;0.00;;;11.30;76.90;;;;;;4973226;28;87769;-71
2023/03/25 09:31:53;;;;;;;0.80;0.00;;;11.50;77.30;;;;;;4975044;28;87270;-71
2023/03/25 09:34:19;;;;;;;0.60;0.00;;;11.80;76.20;;;;;;4972142;28;87938;-70
2023/03/25 09:36:45;;;;;;;0.47;0.03;;;12.40;74.60;;;;;;4968209;28;87738;-69
2023/03/25 09:39:11;;;;;;;0.35;0.00;;;12.90;72.60;;;;;;4962855;28;89411;-70
2023/03/25 09:41:58;;;;;;;1.05;0.00;;;13.40;69.00;;;;;;4970415;28;87163;-71
2023/03/25 09:44:34;;;;;;;0.50;0.00;;;13.70;71.20;;;;;;4968850;28;88403;-71
2023/03/25 09:47:01;;;;;;;1.00;0.13;;;14.60;67.60;;;;;;4961720;28;88337;-71
2023/03/25 09:49:40;;;;;;;0.60;0.03;;;16.50;64.90;;;;;;4966296;28;88909;-71
2023/03/25 09:52:15;;;;;;;1.85;0.00;;;17.80;59.60;;;;;;4964361;28;87657;-71
2023/03/25 09:54:49;;;;;;;0.50;0.08;;;17.30;57.80;;;;;;4968240;28;88130;-71
2023/03/25 09:57:20;;;;;;;0.30;0.00;;;16.70;60.40;;;;;;4964804;28;87528;-71
2023/03/25 09:59:51;;;;;;;1.58;0.03;;;16.00;60.50;;;;;;4963060;28;87538;-72
2023/03/25 10:02:35;;;;;;;0.88;0.00;;;15.30;63.80;;;;;;4962388;28;87299;-72
2023/03/25 10:05:19;;;;;;;2.10;0.10;;;14.90;65.60;;;;;;4961911;28;88520;-71
2023/03/25 10:08:04;;;;;;;1.23;0.10;;;14.50;65.10;;;;;;4963455;28;87359;-71
2023/03/25 10:11:01;;;;;;;0.77;0.00;;;14.10;67.60;;;;;;4970084;28;89408;-71
2023/03/25 10:13:55;;;;;;;2.97;0.00;;;13.90;66.60;;;;;;4963866;28;87615;-71
2023/03/25 10:16:33;;;;;;;1.08;0.10;;;13.70;67.20;;;;;;4966029;28;88707;-72
2023/03/25 10:19:28;;;;;;;0.20;0.00;;;13.40;68.90;;;;;;4964259;28;88583;-71
2023/03/25 10:22:15;;;;;;;0.75;0.00;;;13.00;70.50;;;;;;4964311;28;87495;-71
2023/03/25 10:24:56;;;;;;;0.95;0.00;;;13.00;69.70;;;;;;4966714;28;87534;-71
2023/03/25 10:27:26;;;;;;;0.30;0.00;;;13.30;70.90;;;;;;4960029;28;88647;-70
2023/03/25 10:30:13;;;;;;;0.30;0.03;;;13.40;68.80;;;;;;4965981;28;87573;-71
2023/03/25 10:32:45;;;;;;;0.20;0.00;;;13.40;67.80;;;;;;4964134;28;87600;-71
2023/03/25 10:35:16;;;;;;;1.45;0.03;;;13.50;68.40;;;;;;4962366;28;86399;-70
2023/03/25 10:37:43;;;;;;;0.57;0.00;;;14.20;67.10;;;;;;4966938;28;88457;-71
2023/03/25 10:40:18;;;;;;;0.82;0.00;;;15.40;65.40;;;;;;4960281;28;87951;-71
2023/03/25 10:43:12;;;;;;;0.28;0.00;;;16.50;61.90;;;;;;4956599;28;89900;-71
2023/03/25 10:45:40;;;;;;;0.40;0.03;;;17.30;59.90;;;;;;4953987;28;88871;-72
2023/03/25 10:48:21;;;;;;;0.30;0.10;;;17.60;58.70;;;;;;4952166;28;88892;-72
2023/03/25 10:50:49;;;;;;;1.08;0.10;;;17.90;57.20;;;;;;4963358;28;88093;-70
2023/03/25 10:53:26;;;;;;;1.38;0.10;;;17.60;59.10;;;;;;4973680;28;88474;-72
2023/03/25 10:56:16;;;;;;;0.40;0.03;;;17.70;56.70;;;;;;4965901;28;87459;-72
2023/03/25 10:58:46;;;;;;;0.30;0.00;;;17.50;58.30;;;;;;4975853;28;88015;-71
2023/03/25 11:01:16;;;;;;;0.50;0.10;;;17.30;58.00;;;;;;4976173;28;87275;-71
2023/03/25 11:03:43;;;;;;;0.32;0.03;;;16.80;58.50;;;;;;4971816;28;87133;-72
2023/03/25 11:06:28;;;;;;;0.50;0.00;;;16.80;58.80;;;;;;4969668;28;87748;-70
2023/03/25 11:09:16;;;;;;;1.17;0.10;;;17.40;61.40;;;;;;4972132;28;90047;-71
2023/03/25 11:11:43;;;;;;;1.42;0.00;;;17.70;55.80;;;;;;4980007;28;88326;-72
2023/03/25 11:14:14;;;;;;;1.52;0.08;;;17.80;56.50;;;;;;4965911;28;87702;-71
2023/03/25 11:16:51;;;;;;;0.60;0.03;;;18.00;55.40;;;;;;4959945;28;87444;-70
2023/03/25 11:19:29;;;;;;;0.52;0.00;;;17.70;55.10;;;;;;4968495;28;88676;-71
2023/03/25 11:22:00;;;;;;;0.30;0.00;;;17.60;56.50;;;;;;4961471;28;87660;-71
2023/03/25 11:24:38;;;;;;;0.30;0.00;;;17.40;55.60;;;;;;4965149;28;87188;-71
2023/03/25 11:27:07;;;;;;;0.55;0.10;;;17.50;57.20;;;;;;4972158;28;86835;-72
2023/03/25 11:29:35;;;;;;;0.38;0.00;;;17.80;55.70;;;;;;4967051;28;88382;-72
2023/03/25 11:32:13;;;;;;;1.20;0.10;;;17.80;55.00;;;;;;4968583;28;87841;-72
2023/03/25 11:34:42;;;;;;;0.82;0.00;;;17.80;55.70;;;;;;4965855;28;88979;-71
2023/03/25 11:37:23;;;;;;;0.60;0.10;;;17.40;55.30;;;;;;4962065;28;87545;-70
2023/03/25 11:39:54;;;;;;;0.30;0.10;;;17.20;61.30;;;;;;4971980;28;89177;-72
2023/03/25 11:42:28;;;;;;;0.35;0.10;;;17.50;60.60;;;;;;4973252;28;87490;-71
2023/03/25 11:44:58;;;;;;;0.60;0.10;;;17.90;57.60;;;;;;4976839;28;87439;-71
2023/03/25 11:47:50;;;;;;;;;;;18.00;56.40;;;;;;4979191;28;87629;-71
2023/03/25 11:50:28;;;;;;;0.17;0.00;;;18.10;56.50;;;;;;4963398;28;88738;-72
2023/03/25 11:52:58;;;;;;;0.80;0.10;;;18.20;54.90;;;;;;4975111;28;87367;-71
2023/03/25 11:55:30;;;;;;;0.20;0.00;;;18.20;52.40;;;;;;4977671;28;87480;-71
2023/03/25 11:57:59;;;;;;;0.40;0.03;;;17.70;52.80;;;;;;4977591;28;87589;-71
2023/03/25 12:00:28;;;;;;;1.95;0.08;;;17.60;53.10;;;;;;4978325;28;88554;-71
2023/03/25 12:03:04;;;;;;;0.43;0.03;;;17.70;53.90;;;;;;4990634;28;88232;-71
2023/03/25 12:05:31;;;;;;;0.32;0.10;;;18.10;54.60;;;;;;4997449;28;87068;-71
2023/03/25 12:08:13;;;;;;;0.30;0.10;;;18.00;52.00;;;;;;4997376;28;87445;-71
2023/03/25 12:11:08;;;;;;;0.20;0.00;;;18.20;51.50;;;;;;4981765;28;88321;-71
2023/03/25 12:14:26;;;;;;;0.30;0.00;;;18.40;53.90;;;;;;4972120;28;87885;-72
2023/03/25 12:17:29;;;;;;;0.20;0.00;;;18.50;52.60;;;;;;4972380;28;87392;-70
2023/03/25 12:20:07;;;;;;;2.05;0.10;;;18.90;52.60;;;;;;4966991;28;86556;-73
2023/03/25 12:22:35;;;;;;;1.05;0.00;;;19.20;53.50;;;;;;4986036;28;89119;-72
2023/03/25 12:25:18;;;;;;;1.80;0.10;;;19.20;51.10;;;;;;4984273;28;87406;-70
2023/03/25 12:27:44;;;;;;;1.15;0.10;;;19.20;52.90;;;;;;4983758;28;88530;-71
2023/03/25 12:30:31;;;;;;;1.90;0.10;;;19.20;51.30;;;;;;4976841;28;87029;-70
2023/03/25 12:33:23;;;;;;;1.23;0.10;;;19.10;51.20;;;;;;4976933;28;88203;-71
2023/03/25 12:36:06;;;;;;;0.77;0.20;;;19.30;52.40;;;;;;4989251;28;87806;-72
2023/03/25 12:38:41;;;;;;;0.70;0.10;;;19.20;54.00;;;;;;4996678;28;87512;-71
2023/03/25 12:41:27;;;;;;;1.35;0.22;;;18.50;57.70;;;;;;4988889;28;87524;-71
2023/03/25 12:44:24;;;;;;;0.70;0.10;;;18.20;60.60;;;;;;4976375;28;87723;-72
2023/03/25 12:47:07;;;;;;;1.05;0.13;;;17.80;62.50;;;;;;4978407;28;87945;-72
2023/03/25 12:49:45;;;;;;;0.70;0.10;;;17.00;62.40;;;;;;4980348;28;88140;-69
2023/03/25 12:52:29;;;;;;;1.05;0.10;;;17.00;63.90;;;;;;4978250;28;87381;-72
2023/03/25 12:55:08;;;;;;;0.93;0.40;;;16.50;64.90;;;;;;4999488;28;90134;-71
2023/03/25 12:58:23;;;;;;;0.65;0.10;;;16.20;65.30;;;;;;4993310;28;88581;-72
2023/03/25 13:01:17;;;;;;;0.82;0.13;;;16.40;67.00;;;;;;4976964;28;87552;-72
2023/03/25 13:04:09;;;;;;;2.05;0.10;;;16.50;66.90;;;;;;4992093;28;87025;-71
2023/03/25 13:06:41;;;;;;;2.13;0.10;;;16.40;66.40;;;;;;4997502;28;87775;-71
2023/03/25 13:09:12;;;;;;;2.65;0.10;;;16.40;67.00;;;;;;4996802;28;87982;-71
2023/03/25 13:11:48;;;;;;;2.75;0.10;;;16.30;66.80;;;;;;4974791;28;87443;-72
2023/03/25 13:14:20;;;;;;;0.50;0.00;;;16.40;66.70;;;;;;4975730;28;86404;-72
2023/03/25 13:16:49;;;;;;;0.80;0.10;;;16.60;67.30;;;;;;4978417;28;88838;-72
2023/03/25 13:19:21;;;;;;;0.47;0.10;;;16.50;66.40;;;;;;4979535;28;87526;-71